sensor_id;sensor_type;location;lat;lon;timestamp;P1;durP1;ratioP1;P2;durP2;ratioP2
10244;SDS011;5167;52.164;10.530;2023-07-20T00:00:26;2.72;;;1.23;;
10244;SDS011;5167;52.164;10.530;2023-07-20T00:02:52;0.90;;;0.90;;
10244;SDS011;5167;52.164;10.530;2023-07-20T00:05:17;2.58;;;0.70;;
10244;SDS011;5167;52.164;10.530;2023-07-20T00:07:43;2.10;;;1.33;;
10244;SDS011;5167;52.164;10.530;2023-07-20T00:10:09;0.98;;;0.93;;
10244;SDS011;5167;52.164;10.530;2023-07-20T00:12:34;2.20;;;0.95;;
10244;SDS011;5167;52.164;10.530;2023-07-20T00:15:00;1.13;;;0.90;;
10244;SDS011;5167;52.164;10.530;2023-07-20T00:17:26;1.23;;;0.90;;
10244;SDS011;5167;52.164;10.530;2023-07-20T00:19:51;2.40;;;1.00;;
10244;SDS011;5167;52.164;10.530;2023-07-20T00:22:17;2.33;;;0.90;;
10244;SDS011;5167;52.164;10.530;2023-07-20T00:24:42;2.35;;;1.17;;
10244;SDS011;5167;52.164;10.530;2023-07-20T00:27:08;0.70;;;0.70;;
10244;SDS011;5167;52.164;10.530;2023-07-20T00:29:34;2.33;;;1.10;;
10244;SDS011;5167;52.164;10.530;2023-07-20T00:32:00;0.60;;;0.60;;
10244;SDS011;5167;52.164;10.530;2023-07-20T00:34:25;1.08;;;1.00;;
10244;SDS011;5167;52.164;10.530;2023-07-20T00:36:51;1.45;;;0.70;;
10244;SDS011;5167;52.164;10.530;2023-07-20T00:39:16;1.40;;;0.90;;
10244;SDS011;5167;52.164;10.530;2023-07-20T00:41:42;0.82;;;0.70;;
10244;SDS011;5167;52.164;10.530;2023-07-20T00:44:08;4.07;;;1.10;;
10244;SDS011;5167;52.164;10.530;2023-07-20T00:46:33;0.75;;;0.75;;
10244;SDS011;5167;52.164;10.530;2023-07-20T00:48:59;2.78;;;1.13;;
10244;SDS011;5167;52.164;10.530;2023-07-20T00:51:25;1.02;;;0.90;;
10244;SDS011;5167;52.164;10.530;2023-07-20T00:53:52;0.95;;;0.90;;
10244;SDS011;5167;52.164;10.530;2023-07-20T00:56:18;1.20;;;1.10;;
10244;SDS011;5167;52.164;10.530;2023-07-20T00:58:44;2.25;;;0.90;;
10244;SDS011;5167;52.164;10.530;2023-07-20T01:01:10;1.58;;;0.93;;
10244;SDS011;5167;52.164;10.530;2023-07-20T01:03:36;4.85;;;1.02;;
10244;SDS011;5167;52.164;10.530;2023-07-20T01:06:14;1.70;;;1.10;;
10244;SDS011;5167;52.164;10.530;2023-07-20T01:09:12;0.95;;;0.95;;
10244;SDS011;5167;52.164;10.530;2023-07-20T01:14:24;1.13;;;0.98;;
10244;SDS011;5167;52.164;10.530;2023-07-20T01:16:50;1.35;;;0.98;;
10244;SDS011;5167;52.164;10.530;2023-07-20T01:19:17;1.75;;;1.00;;
10244;SDS011;5167;52.164;10.530;2023-07-20T01:22:02;1.55;;;1.30;;
10244;SDS011;5167;52.164;10.530;2023-07-20T01:24:42;1.90;;;1.02;;
10244;SDS011;5167;52.164;10.530;2023-07-20T01:33:10;0.95;;;0.85;;
10244;SDS011;5167;52.164;10.530;2023-07-20T01:35:38;1.20;;;1.13;;
10244;SDS011;5167;52.164;10.530;2023-07-20T01:38:06;1.23;;;0.80;;
10244;SDS011;5167;52.164;10.530;2023-07-20T01:40:33;1.20;;;1.10;;
10244;SDS011;5167;52.164;10.530;2023-07-20T01:42:59;2.63;;;0.85;;
10244;SDS011;5167;52.164;10.530;2023-07-20T01:45:24;1.15;;;1.10;;
10244;SDS011;5167;52.164;10.530;2023-07-20T01:47:50;2.30;;;0.85;;
10244;SDS011;5167;52.164;10.530;2023-07-20T01:50:16;2.70;;;1.00;;
10244;SDS011;5167;52.164;10.530;2023-07-20T01:52:41;1.20;;;1.00;;
10244;SDS011;5167;52.164;10.530;2023-07-20T01:55:07;1.65;;;1.08;;
10244;SDS011;5167;52.164;10.530;2023-07-20T01:57:33;1.13;;;0.90;;
10244;SDS011;5167;52.164;10.530;2023-07-20T01:59:58;0.82;;;0.80;;
10244;SDS011;5167;52.164;10.530;2023-07-20T02:02:26;2.65;;;1.08;;
10244;SDS011;5167;52.164;10.530;2023-07-20T02:04:53;1.67;;;0.77;;
10244;SDS011;5167;52.164;10.530;2023-07-20T02:07:19;0.82;;;0.82;;
10244;SDS011;5167;52.164;10.530;2023-07-20T02:09:44;4.20;;;1.00;;
10244;SDS011;5167;52.164;10.530;2023-07-20T02:12:10;2.75;;;1.25;;
10244;SDS011;5167;52.164;10.530;2023-07-20T02:14:35;1.02;;;1.00;;
10244;SDS011;5167;52.164;10.530;2023-07-20T02:17:01;2.17;;;1.35;;
10244;SDS011;5167;52.164;10.530;2023-07-20T02:19:26;0.93;;;0.90;;
10244;SDS011;5167;52.164;10.530;2023-07-20T02:21:52;0.85;;;0.85;;
10244;SDS011;5167;52.164;10.530;2023-07-20T02:24:18;2.67;;;1.30;;
10244;SDS011;5167;52.164;10.530;2023-07-20T02:26:43;0.90;;;0.90;;
10244;SDS011;5167;52.164;10.530;2023-07-20T02:29:09;2.08;;;1.02;;
10244;SDS011;5167;52.164;10.530;2023-07-20T02:31:36;1.15;;;0.90;;
10244;SDS011;5167;52.164;10.530;2023-07-20T02:34:04;1.63;;;1.10;;
10244;SDS011;5167;52.164;10.530;2023-07-20T02:36:33;2.00;;;1.23;;
10244;SDS011;5167;52.164;10.530;2023-07-20T02:38:59;0.70;;;0.70;;
10244;SDS011;5167;52.164;10.530;2023-07-20T02:41:25;4.07;;;0.80;;
10244;SDS011;5167;52.164;10.530;2023-07-20T02:43:51;2.03;;;0.85;;
10244;SDS011;5167;52.164;10.530;2023-07-20T02:46:16;1.80;;;0.90;;
10244;SDS011;5167;52.164;10.530;2023-07-20T02:48:42;1.10;;;0.88;;
10244;SDS011;5167;52.164;10.530;2023-07-20T02:51:07;1.05;;;1.00;;
10244;SDS011;5167;52.164;10.530;2023-07-20T02:53:34;1.10;;;1.00;;
10244;SDS011;5167;52.164;10.530;2023-07-20T02:55:59;2.25;;;0.80;;
10244;SDS011;5167;52.164;10.530;2023-07-20T02:58:25;1.08;;;0.98;;
10244;SDS011;5167;52.164;10.530;2023-07-20T03:00:50;1.95;;;1.05;;
10244;SDS011;5167;52.164;10.530;2023-07-20T03:03:16;1.60;;;0.98;;
10244;SDS011;5167;52.164;10.530;2023-07-20T03:05:41;2.35;;;1.13;;
10244;SDS011;5167;52.164;10.530;2023-07-20T03:08:07;1.58;;;1.20;;
10244;SDS011;5167;52.164;10.530;2023-07-20T03:10:37;2.85;;;0.90;;
10244;SDS011;5167;52.164;10.530;2023-07-20T03:13:04;1.25;;;1.15;;
10244;SDS011;5167;52.164;10.530;2023-07-20T03:15:29;1.15;;;1.08;;
10244;SDS011;5167;52.164;10.530;2023-07-20T03:17:56;3.70;;;1.40;;
10244;SDS011;5167;52.164;10.530;2023-07-20T03:20:23;5.07;;;1.17;;
10244;SDS011;5167;52.164;10.530;2023-07-20T03:22:49;2.17;;;1.08;;
10244;SDS011;5167;52.164;10.530;2023-07-20T03:25:14;1.23;;;1.20;;
10244;SDS011;5167;52.164;10.530;2023-07-20T03:27:40;3.22;;;1.45;;
10244;SDS011;5167;52.164;10.530;2023-07-20T03:30:05;1.75;;;1.10;;
10244;SDS011;5167;52.164;10.530;2023-07-20T03:32:32;3.17;;;1.92;;
10244;SDS011;5167;52.164;10.530;2023-07-20T03:34:57;2.28;;;1.30;;
10244;SDS011;5167;52.164;10.530;2023-07-20T03:37:23;2.38;;;1.33;;
10244;SDS011;5167;52.164;10.530;2023-07-20T03:39:48;1.92;;;1.50;;
10244;SDS011;5167;52.164;10.530;2023-07-20T03:42:14;4.30;;;1.48;;
10244;SDS011;5167;52.164;10.530;2023-07-20T03:44:39;1.77;;;1.25;;
10244;SDS011;5167;52.164;10.530;2023-07-20T03:47:05;1.75;;;1.65;;
10244;SDS011;5167;52.164;10.530;2023-07-20T03:49:31;2.45;;;1.52;;
10244;SDS011;5167;52.164;10.530;2023-07-20T03:51:57;3.40;;;1.35;;
10244;SDS011;5167;52.164;10.530;2023-07-20T03:54:22;3.03;;;1.60;;
10244;SDS011;5167;52.164;10.530;2023-07-20T03:56:48;3.30;;;1.90;;
10244;SDS011;5167;52.164;10.530;2023-07-20T03:59:13;2.28;;;1.33;;
10244;SDS011;5167;52.164;10.530;2023-07-20T04:01:39;1.95;;;1.60;;
10244;SDS011;5167;52.164;10.530;2023-07-20T04:04:06;7.53;;;1.70;;
10244;SDS011;5167;52.164;10.530;2023-07-20T04:06:33;1.80;;;1.40;;
10244;SDS011;5167;52.164;10.530;2023-07-20T04:08:58;3.60;;;1.50;;
10244;SDS011;5167;52.164;10.530;2023-07-20T04:11:24;1.60;;;1.48;;
10244;SDS011;5167;52.164;10.530;2023-07-20T04:13:49;8.85;;;1.70;;
10244;SDS011;5167;52.164;10.530;2023-07-20T04:16:15;1.73;;;1.52;;
10244;SDS011;5167;52.164;10.530;2023-07-20T04:18:40;3.55;;;1.65;;
10244;SDS011;5167;52.164;10.530;2023-07-20T04:21:07;6.38;;;2.72;;
10244;SDS011;5167;52.164;10.530;2023-07-20T04:23:33;2.80;;;1.20;;
10244;SDS011;5167;52.164;10.530;2023-07-20T04:26:00;2.38;;;1.45;;
10244;SDS011;5167;52.164;10.530;2023-07-20T04:28:26;3.40;;;1.65;;
10244;SDS011;5167;52.164;10.530;2023-07-20T04:30:52;2.97;;;1.40;;
10244;SDS011;5167;52.164;10.530;2023-07-20T04:33:17;1.65;;;1.40;;
10244;SDS011;5167;52.164;10.530;2023-07-20T04:38:18;2.38;;;1.73;;
10244;SDS011;5167;52.164;10.530;2023-07-20T04:40:45;1.95;;;1.50;;
10244;SDS011;5167;52.164;10.530;2023-07-20T04:43:11;3.70;;;1.40;;
10244;SDS011;5167;52.164;10.530;2023-07-20T04:45:37;3.40;;;1.50;;
10244;SDS011;5167;52.164;10.530;2023-07-20T04:48:03;2.50;;;1.20;;
10244;SDS011;5167;52.164;10.530;2023-07-20T04:50:31;1.20;;;1.10;;
10244;SDS011;5167;52.164;10.530;2023-07-20T04:52:57;1.52;;;1.20;;
10244;SDS011;5167;52.164;10.530;2023-07-20T04:55:22;2.70;;;1.30;;
10244;SDS011;5167;52.164;10.530;2023-07-20T04:57:48;1.52;;;1.38;;
10244;SDS011;5167;52.164;10.530;2023-07-20T05:00:13;4.55;;;1.20;;
10244;SDS011;5167;52.164;10.530;2023-07-20T05:02:40;2.00;;;1.17;;
10244;SDS011;5167;52.164;10.530;2023-07-20T05:05:05;2.85;;;1.35;;
10244;SDS011;5167;52.164;10.530;2023-07-20T05:07:31;3.17;;;1.27;;
10244;SDS011;5167;52.164;10.530;2023-07-20T05:09:57;3.38;;;1.50;;
10244;SDS011;5167;52.164;10.530;2023-07-20T05:12:23;2.20;;;1.13;;
10244;SDS011;5167;52.164;10.530;2023-07-20T05:14:48;2.92;;;1.67;;
10244;SDS011;5167;52.164;10.530;2023-07-20T05:17:14;1.70;;;1.27;;
10244;SDS011;5167;52.164;10.530;2023-07-20T05:19:39;1.13;;;1.02;;
10244;SDS011;5167;52.164;10.530;2023-07-20T05:22:05;1.35;;;1.25;;
10244;SDS011;5167;52.164;10.530;2023-07-20T05:24:30;2.92;;;1.23;;
10244;SDS011;5167;52.164;10.530;2023-07-20T05:26:56;1.95;;;1.27;;
10244;SDS011;5167;52.164;10.530;2023-07-20T05:29:23;3.00;;;1.38;;
10244;SDS011;5167;52.164;10.530;2023-07-20T05:31:49;5.28;;;1.73;;
10244;SDS011;5167;52.164;10.530;2023-07-20T05:34:14;1.85;;;1.23;;
10244;SDS011;5167;52.164;10.530;2023-07-20T05:36:40;2.63;;;1.33;;
10244;SDS011;5167;52.164;10.530;2023-07-20T05:39:06;1.50;;;1.20;;
10244;SDS011;5167;52.164;10.530;2023-07-20T05:41:31;1.60;;;1.50;;
10244;SDS011;5167;52.164;10.530;2023-07-20T05:43:56;1.83;;;1.52;;
10244;SDS011;5167;52.164;10.530;2023-07-20T05:46:22;1.70;;;1.48;;
10244;SDS011;5167;52.164;10.530;2023-07-20T05:48:49;3.25;;;1.25;;
10244;SDS011;5167;52.164;10.530;2023-07-20T05:51:14;2.42;;;1.80;;
10244;SDS011;5167;52.164;10.530;2023-07-20T05:53:40;5.03;;;2.08;;
10244;SDS011;5167;52.164;10.530;2023-07-20T05:56:06;2.28;;;1.70;;
10244;SDS011;5167;52.164;10.530;2023-07-20T05:58:35;2.10;;;1.65;;
10244;SDS011;5167;52.164;10.530;2023-07-20T06:01:00;2.15;;;1.27;;
10244;SDS011;5167;52.164;10.530;2023-07-20T06:03:27;1.25;;;0.90;;
10244;SDS011;5167;52.164;10.530;2023-07-20T06:05:57;1.35;;;1.25;;
10244;SDS011;5167;52.164;10.530;2023-07-20T06:08:25;1.25;;;1.15;;
10244;SDS011;5167;52.164;10.530;2023-07-20T06:10:50;1.60;;;1.17;;
10244;SDS011;5167;52.164;10.530;2023-07-20T06:13:19;1.20;;;1.20;;
10244;SDS011;5167;52.164;10.530;2023-07-20T06:15:44;2.42;;;1.20;;
10244;SDS011;5167;52.164;10.530;2023-07-20T06:18:10;2.40;;;1.70;;
10244;SDS011;5167;52.164;10.530;2023-07-20T06:20:35;1.58;;;1.42;;
10244;SDS011;5167;52.164;10.530;2023-07-20T06:23:01;2.58;;;1.40;;
10244;SDS011;5167;52.164;10.530;2023-07-20T06:25:26;1.75;;;1.60;;
10244;SDS011;5167;52.164;10.530;2023-07-20T06:27:52;2.05;;;1.48;;
10244;SDS011;5167;52.164;10.530;2023-07-20T06:30:18;1.92;;;1.20;;
10244;SDS011;5167;52.164;10.530;2023-07-20T06:32:44;1.63;;;1.52;;
10244;SDS011;5167;52.164;10.530;2023-07-20T06:35:10;2.95;;;1.35;;
10244;SDS011;5167;52.164;10.530;2023-07-20T06:37:35;2.20;;;1.83;;
10244;SDS011;5167;52.164;10.530;2023-07-20T06:40:02;2.05;;;1.80;;
10244;SDS011;5167;52.164;10.530;2023-07-20T06:42:28;3.92;;;1.80;;
10244;SDS011;5167;52.164;10.530;2023-07-20T06:44:54;3.05;;;2.10;;
10244;SDS011;5167;52.164;10.530;2023-07-20T06:47:21;2.03;;;1.83;;
10244;SDS011;5167;52.164;10.530;2023-07-20T06:49:46;3.42;;;2.10;;
10244;SDS011;5167;52.164;10.530;2023-07-20T06:52:12;3.85;;;2.33;;
10244;SDS011;5167;52.164;10.530;2023-07-20T06:54:37;5.38;;;2.53;;
10244;SDS011;5167;52.164;10.530;2023-07-20T06:57:04;4.85;;;2.78;;
10244;SDS011;5167;52.164;10.530;2023-07-20T06:59:30;2.97;;;2.13;;
10244;SDS011;5167;52.164;10.530;2023-07-20T07:01:55;1.90;;;1.80;;
10244;SDS011;5167;52.164;10.530;2023-07-20T07:04:21;2.03;;;1.77;;
10244;SDS011;5167;52.164;10.530;2023-07-20T07:06:47;2.20;;;2.05;;
10244;SDS011;5167;52.164;10.530;2023-07-20T07:09:13;2.25;;;2.05;;
10244;SDS011;5167;52.164;10.530;2023-07-20T07:11:39;5.20;;;2.30;;
10244;SDS011;5167;52.164;10.530;2023-07-20T07:14:04;3.92;;;2.40;;
10244;SDS011;5167;52.164;10.530;2023-07-20T07:16:30;2.75;;;2.10;;
10244;SDS011;5167;52.164;10.530;2023-07-20T07:18:55;3.60;;;2.20;;
10244;SDS011;5167;52.164;10.530;2023-07-20T07:21:21;3.90;;;2.92;;
10244;SDS011;5167;52.164;10.530;2023-07-20T07:23:46;4.25;;;2.85;;
10244;SDS011;5167;52.164;10.530;2023-07-20T07:26:12;4.32;;;3.03;;
10244;SDS011;5167;52.164;10.530;2023-07-20T07:28:38;3.83;;;3.00;;
10244;SDS011;5167;52.164;10.530;2023-07-20T07:31:07;2.90;;;2.60;;
10244;SDS011;5167;52.164;10.530;2023-07-20T07:33:32;3.90;;;2.90;;
10244;SDS011;5167;52.164;10.530;2023-07-20T07:35:59;3.42;;;2.63;;
10244;SDS011;5167;52.164;10.530;2023-07-20T07:38:24;4.05;;;2.97;;
10244;SDS011;5167;52.164;10.530;2023-07-20T07:40:50;2.88;;;2.60;;
10244;SDS011;5167;52.164;10.530;2023-07-20T07:43:15;3.10;;;2.80;;
10244;SDS011;5167;52.164;10.530;2023-07-20T07:45:41;5.32;;;2.58;;
10244;SDS011;5167;52.164;10.530;2023-07-20T07:48:07;2.75;;;2.10;;
10244;SDS011;5167;52.164;10.530;2023-07-20T07:50:33;2.47;;;2.00;;
10244;SDS011;5167;52.164;10.530;2023-07-20T07:52:59;2.60;;;1.88;;
10244;SDS011;5167;52.164;10.530;2023-07-20T07:55:25;3.40;;;1.73;;
10244;SDS011;5167;52.164;10.530;2023-07-20T07:57:53;1.45;;;1.35;;
10244;SDS011;5167;52.164;10.530;2023-07-20T08:00:19;1.50;;;1.40;;
10244;SDS011;5167;52.164;10.530;2023-07-20T08:02:45;1.38;;;1.33;;
10244;SDS011;5167;52.164;10.530;2023-07-20T08:05:14;2.85;;;1.30;;
10244;SDS011;5167;52.164;10.530;2023-07-20T08:07:39;2.78;;;1.20;;
10244;SDS011;5167;52.164;10.530;2023-07-20T08:10:05;1.48;;;1.38;;
10244;SDS011;5167;52.164;10.530;2023-07-20T08:12:32;1.42;;;1.35;;
10244;SDS011;5167;52.164;10.530;2023-07-20T08:14:57;1.58;;;1.20;;
10244;SDS011;5167;52.164;10.530;2023-07-20T08:17:23;1.70;;;1.60;;
10244;SDS011;5167;52.164;10.530;2023-07-20T08:19:49;1.65;;;1.55;;
10244;SDS011;5167;52.164;10.530;2023-07-20T08:22:15;1.50;;;1.40;;
10244;SDS011;5167;52.164;10.530;2023-07-20T08:24:41;1.42;;;1.30;;
10244;SDS011;5167;52.164;10.530;2023-07-20T08:27:07;2.60;;;1.27;;
10244;SDS011;5167;52.164;10.530;2023-07-20T08:29:33;1.90;;;1.80;;
10244;SDS011;5167;52.164;10.530;2023-07-20T08:31:59;2.00;;;1.75;;
10244;SDS011;5167;52.164;10.530;2023-07-20T08:34:25;1.60;;;1.50;;
10244;SDS011;5167;52.164;10.530;2023-07-20T08:36:50;1.73;;;1.63;;
10244;SDS011;5167;52.164;10.530;2023-07-20T08:39:16;1.73;;;1.50;;
10244;SDS011;5167;52.164;10.530;2023-07-20T08:41:46;1.50;;;1.40;;
10244;SDS011;5167;52.164;10.530;2023-07-20T08:44:11;2.53;;;1.55;;
10244;SDS011;5167;52.164;10.530;2023-07-20T08:46:38;1.55;;;1.45;;
10244;SDS011;5167;52.164;10.530;2023-07-20T08:49:04;1.80;;;1.70;;
10244;SDS011;5167;52.164;10.530;2023-07-20T08:51:30;1.45;;;1.35;;
10244;SDS011;5167;52.164;10.530;2023-07-20T08:53:57;2.08;;;1.40;;
10244;SDS011;5167;52.164;10.530;2023-07-20T08:56:24;1.50;;;1.40;;
10244;SDS011;5167;52.164;10.530;2023-07-20T08:58:51;1.65;;;1.42;;
10244;SDS011;5167;52.164;10.530;2023-07-20T09:01:21;1.73;;;1.63;;
10244;SDS011;5167;52.164;10.530;2023-07-20T09:03:47;1.30;;;1.20;;
10244;SDS011;5167;52.164;10.530;2023-07-20T09:06:13;2.55;;;1.23;;
10244;SDS011;5167;52.164;10.530;2023-07-20T09:08:39;2.22;;;1.40;;
10244;SDS011;5167;52.164;10.530;2023-07-20T09:11:06;2.80;;;1.42;;
10244;SDS011;5167;52.164;10.530;2023-07-20T09:13:32;1.13;;;1.02;;
10244;SDS011;5167;52.164;10.530;2023-07-20T09:15:58;1.13;;;1.13;;
10244;SDS011;5167;52.164;10.530;2023-07-20T09:18:28;1.10;;;1.10;;
10244;SDS011;5167;52.164;10.530;2023-07-20T09:21:01;1.40;;;1.30;;
10244;SDS011;5167;52.164;10.530;2023-07-20T09:23:31;1.48;;;1.17;;
10244;SDS011;5167;52.164;10.530;2023-07-20T09:26:12;1.13;;;1.13;;
10244;SDS011;5167;52.164;10.530;2023-07-20T09:28:43;3.50;;;1.00;;
10244;SDS011;5167;52.164;10.530;2023-07-20T09:31:17;0.95;;;0.95;;
10244;SDS011;5167;52.164;10.530;2023-07-20T09:33:43;1.27;;;1.00;;
10244;SDS011;5167;52.164;10.530;2023-07-20T09:36:10;1.63;;;1.05;;
10244;SDS011;5167;52.164;10.530;2023-07-20T09:38:41;0.90;;;0.90;;
10244;SDS011;5167;52.164;10.530;2023-07-20T09:41:13;4.15;;;0.82;;
10244;SDS011;5167;52.164;10.530;2023-07-20T09:43:43;1.90;;;0.90;;
10244;SDS011;5167;52.164;10.530;2023-07-20T09:46:10;0.80;;;0.80;;
10244;SDS011;5167;52.164;10.530;2023-07-20T09:48:36;1.00;;;0.90;;
10244;SDS011;5167;52.164;10.530;2023-07-20T09:51:01;1.15;;;0.77;;
10244;SDS011;5167;52.164;10.530;2023-07-20T09:53:28;2.58;;;1.05;;
10244;SDS011;5167;52.164;10.530;2023-07-20T09:55:54;0.98;;;0.98;;
10244;SDS011;5167;52.164;10.530;2023-07-20T09:58:21;1.15;;;0.93;;
10244;SDS011;5167;52.164;10.530;2023-07-20T10:00:47;1.85;;;1.20;;
10244;SDS011;5167;52.164;10.530;2023-07-20T10:03:20;0.85;;;0.70;;
10244;SDS011;5167;52.164;10.530;2023-07-20T10:05:57;1.35;;;0.57;;
10244;SDS011;5167;52.164;10.530;2023-07-20T10:08:26;1.65;;;0.77;;
10244;SDS011;5167;52.164;10.530;2023-07-20T10:10:54;1.40;;;0.80;;
10244;SDS011;5167;52.164;10.530;2023-07-20T10:13:27;0.88;;;0.75;;
10244;SDS011;5167;52.164;10.530;2023-07-20T10:15:57;3.25;;;0.80;;
10244;SDS011;5167;52.164;10.530;2023-07-20T10:18:29;6.13;;;0.90;;
10244;SDS011;5167;52.164;10.530;2023-07-20T10:20:59;0.63;;;0.63;;
10244;SDS011;5167;52.164;10.530;2023-07-20T10:23:27;0.73;;;0.73;;
10244;SDS011;5167;52.164;10.530;2023-07-20T10:25:55;1.05;;;0.80;;
10244;SDS011;5167;52.164;10.530;2023-07-20T10:28:21;1.17;;;0.88;;
10244;SDS011;5167;52.164;10.530;2023-07-20T10:30:48;0.82;;;0.60;;
10244;SDS011;5167;52.164;10.530;2023-07-20T10:33:15;1.77;;;0.50;;
10244;SDS011;5167;52.164;10.530;2023-07-20T10:35:55;0.65;;;0.65;;
10244;SDS011;5167;52.164;10.530;2023-07-20T10:38:38;0.90;;;0.80;;
10244;SDS011;5167;52.164;10.530;2023-07-20T10:41:15;0.60;;;0.60;;
10244;SDS011;5167;52.164;10.530;2023-07-20T10:43:45;1.58;;;0.43;;
10244;SDS011;5167;52.164;10.530;2023-07-20T10:46:11;1.15;;;0.50;;
10244;SDS011;5167;52.164;10.530;2023-07-20T10:48:58;0.55;;;0.40;;
10244;SDS011;5167;52.164;10.530;2023-07-20T10:54:07;0.47;;;0.47;;
10244;SDS011;5167;52.164;10.530;2023-07-20T10:56:34;0.60;;;0.60;;
10244;SDS011;5167;52.164;10.530;2023-07-20T10:59:00;0.80;;;0.60;;
10244;SDS011;5167;52.164;10.530;2023-07-20T11:01:29;1.65;;;0.90;;
10244;SDS011;5167;52.164;10.530;2023-07-20T11:03:58;2.25;;;0.70;;
10244;SDS011;5167;52.164;10.530;2023-07-20T11:11:40;1.17;;;0.75;;
10244;SDS011;5167;52.164;10.530;2023-07-20T11:14:08;0.85;;;0.60;;
10244;SDS011;5167;52.164;10.530;2023-07-20T11:16:44;1.25;;;0.98;;
10244;SDS011;5167;52.164;10.530;2023-07-20T11:19:17;0.80;;;0.80;;
10244;SDS011;5167;52.164;10.530;2023-07-20T11:21:45;0.80;;;0.80;;
10244;SDS011;5167;52.164;10.530;2023-07-20T11:24:14;2.80;;;0.98;;
10244;SDS011;5167;52.164;10.530;2023-07-20T11:26:43;0.90;;;0.90;;
10244;SDS011;5167;52.164;10.530;2023-07-20T11:29:10;1.10;;;1.00;;
10244;SDS011;5167;52.164;10.530;2023-07-20T11:31:37;1.70;;;1.17;;
10244;SDS011;5167;52.164;10.530;2023-07-20T11:34:04;1.42;;;1.25;;
10244;SDS011;5167;52.164;10.530;2023-07-20T11:36:29;2.53;;;1.17;;
10244;SDS011;5167;52.164;10.530;2023-07-20T11:38:55;3.78;;;1.00;;
10244;SDS011;5167;52.164;10.530;2023-07-20T11:41:21;2.53;;;1.20;;
10244;SDS011;5167;52.164;10.530;2023-07-20T11:43:47;1.58;;;0.93;;
10244;SDS011;5167;52.164;10.530;2023-07-20T11:46:12;0.90;;;0.90;;
10244;SDS011;5167;52.164;10.530;2023-07-20T11:48:38;1.05;;;0.60;;
10244;SDS011;5167;52.164;10.530;2023-07-20T11:51:05;1.13;;;0.90;;
10244;SDS011;5167;52.164;10.530;2023-07-20T11:53:30;2.28;;;0.80;;
10244;SDS011;5167;52.164;10.530;2023-07-20T11:55:58;0.77;;;0.77;;
10244;SDS011;5167;52.164;10.530;2023-07-20T11:58:24;3.65;;;1.20;;
10244;SDS011;5167;52.164;10.530;2023-07-20T12:00:49;0.95;;;0.60;;
10244;SDS011;5167;52.164;10.530;2023-07-20T12:03:15;0.90;;;0.60;;
10244;SDS011;5167;52.164;10.530;2023-07-20T12:05:40;3.90;;;1.00;;
10244;SDS011;5167;52.164;10.530;2023-07-20T12:08:06;0.70;;;0.70;;
10244;SDS011;5167;52.164;10.530;2023-07-20T12:10:32;0.52;;;0.52;;
10244;SDS011;5167;52.164;10.530;2023-07-20T12:13:01;1.63;;;0.60;;
10244;SDS011;5167;52.164;10.530;2023-07-20T12:15:30;0.60;;;0.60;;
10244;SDS011;5167;52.164;10.530;2023-07-20T12:17:57;0.75;;;0.75;;
10244;SDS011;5167;52.164;10.530;2023-07-20T12:20:28;0.60;;;0.52;;
10244;SDS011;5167;52.164;10.530;2023-07-20T12:23:02;1.60;;;0.73;;
10244;SDS011;5167;52.164;10.530;2023-07-20T12:25:38;0.73;;;0.70;;
10244;SDS011;5167;52.164;10.530;2023-07-20T12:28:08;0.52;;;0.52;;
10244;SDS011;5167;52.164;10.530;2023-07-20T12:30:44;0.52;;;0.50;;
10244;SDS011;5167;52.164;10.530;2023-07-20T12:33:11;0.63;;;0.63;;
10244;SDS011;5167;52.164;10.530;2023-07-20T12:35:40;0.55;;;0.55;;
10244;SDS011;5167;52.164;10.530;2023-07-20T12:38:08;0.73;;;0.43;;
10244;SDS011;5167;52.164;10.530;2023-07-20T12:40:33;1.58;;;0.47;;
10244;SDS011;5167;52.164;10.530;2023-07-20T12:42:59;0.93;;;0.60;;
10244;SDS011;5167;52.164;10.530;2023-07-20T12:45:24;0.65;;;0.45;;
10244;SDS011;5167;52.164;10.530;2023-07-20T12:47:50;0.70;;;0.70;;
10244;SDS011;5167;52.164;10.530;2023-07-20T12:50:15;0.85;;;0.60;;
10244;SDS011;5167;52.164;10.530;2023-07-20T12:52:41;0.98;;;0.52;;
10244;SDS011;5167;52.164;10.530;2023-07-20T12:55:07;0.88;;;0.50;;
10244;SDS011;5167;52.164;10.530;2023-07-20T12:57:34;2.97;;;0.82;;
10244;SDS011;5167;52.164;10.530;2023-07-20T13:00:04;3.53;;;0.73;;
10244;SDS011;5167;52.164;10.530;2023-07-20T13:02:33;1.30;;;0.82;;
10244;SDS011;5167;52.164;10.530;2023-07-20T13:04:58;0.55;;;0.55;;
10244;SDS011;5167;52.164;10.530;2023-07-20T13:07:34;0.93;;;0.88;;
10244;SDS011;5167;52.164;10.530;2023-07-20T13:10:02;0.60;;;0.60;;
10244;SDS011;5167;52.164;10.530;2023-07-20T13:12:29;0.80;;;0.50;;
10244;SDS011;5167;52.164;10.530;2023-07-20T13:14:56;1.92;;;0.50;;
10244;SDS011;5167;52.164;10.530;2023-07-20T13:17:25;1.38;;;0.68;;
10244;SDS011;5167;52.164;10.530;2023-07-20T13:19:54;3.42;;;0.73;;
10244;SDS011;5167;52.164;10.530;2023-07-20T13:22:20;1.40;;;0.80;;
10244;SDS011;5167;52.164;10.530;2023-07-20T13:24:46;0.50;;;0.50;;
10244;SDS011;5167;52.164;10.530;2023-07-20T13:27:14;1.15;;;0.90;;
10244;SDS011;5167;52.164;10.530;2023-07-20T13:29:40;2.42;;;1.02;;
10244;SDS011;5167;52.164;10.530;2023-07-20T13:32:06;0.82;;;0.75;;
10244;SDS011;5167;52.164;10.530;2023-07-20T13:34:32;0.50;;;0.50;;
10244;SDS011;5167;52.164;10.530;2023-07-20T13:36:58;1.52;;;0.90;;
10244;SDS011;5167;52.164;10.530;2023-07-20T13:39:24;0.77;;;0.70;;
10244;SDS011;5167;52.164;10.530;2023-07-20T13:41:52;1.30;;;0.98;;
10244;SDS011;5167;52.164;10.530;2023-07-20T13:44:18;0.63;;;0.50;;
10244;SDS011;5167;52.164;10.530;2023-07-20T13:46:45;1.73;;;0.50;;
10244;SDS011;5167;52.164;10.530;2023-07-20T13:49:11;0.73;;;0.73;;
10244;SDS011;5167;52.164;10.530;2023-07-20T13:51:36;2.90;;;0.80;;
10244;SDS011;5167;52.164;10.530;2023-07-20T13:54:02;0.57;;;0.57;;
10244;SDS011;5167;52.164;10.530;2023-07-20T13:56:27;0.70;;;0.70;;
10244;SDS011;5167;52.164;10.530;2023-07-20T13:58:53;1.00;;;0.90;;
10244;SDS011;5167;52.164;10.530;2023-07-20T14:01:19;2.05;;;1.20;;
10244;SDS011;5167;52.164;10.530;2023-07-20T14:03:44;2.85;;;1.60;;
10244;SDS011;5167;52.164;10.530;2023-07-20T14:06:10;4.60;;;1.52;;
10244;SDS011;5167;52.164;10.530;2023-07-20T14:08:38;0.73;;;0.70;;
10244;SDS011;5167;52.164;10.530;2023-07-20T14:11:03;1.08;;;1.02;;
10244;SDS011;5167;52.164;10.530;2023-07-20T14:13:29;0.50;;;0.50;;
10244;SDS011;5167;52.164;10.530;2023-07-20T14:15:54;3.40;;;0.80;;
10244;SDS011;5167;52.164;10.530;2023-07-20T14:18:20;2.83;;;0.90;;
10244;SDS011;5167;52.164;10.530;2023-07-20T14:20:45;0.75;;;0.73;;
10244;SDS011;5167;52.164;10.530;2023-07-20T14:23:11;3.55;;;0.90;;
10244;SDS011;5167;52.164;10.530;2023-07-20T14:25:36;2.95;;;0.75;;
10244;SDS011;5167;52.164;10.530;2023-07-20T14:28:02;1.83;;;1.10;;
10244;SDS011;5167;52.164;10.530;2023-07-20T14:30:28;2.25;;;0.88;;
10244;SDS011;5167;52.164;10.530;2023-07-20T14:32:53;1.10;;;0.75;;
10244;SDS011;5167;52.164;10.530;2023-07-20T14:35:19;1.00;;;0.68;;
10244;SDS011;5167;52.164;10.530;2023-07-20T14:37:44;0.68;;;0.68;;
10244;SDS011;5167;52.164;10.530;2023-07-20T14:40:12;0.70;;;0.70;;
10244;SDS011;5167;52.164;10.530;2023-07-20T14:42:38;0.60;;;0.60;;
10244;SDS011;5167;52.164;10.530;2023-07-20T14:45:04;1.40;;;0.70;;
10244;SDS011;5167;52.164;10.530;2023-07-20T14:47:30;2.30;;;0.82;;
10244;SDS011;5167;52.164;10.530;2023-07-20T14:50:00;0.70;;;0.60;;
10244;SDS011;5167;52.164;10.530;2023-07-20T14:52:28;0.68;;;0.68;;
10244;SDS011;5167;52.164;10.530;2023-07-20T14:54:54;1.75;;;0.70;;
10244;SDS011;5167;52.164;10.530;2023-07-20T14:57:20;1.38;;;0.80;;
10244;SDS011;5167;52.164;10.530;2023-07-20T14:59:47;1.80;;;0.50;;
10244;SDS011;5167;52.164;10.530;2023-07-20T15:02:13;0.60;;;0.60;;
10244;SDS011;5167;52.164;10.530;2023-07-20T15:04:46;0.73;;;0.65;;